Wetterverlauf

Letzte Wetterlage 23.08.2014 03:15
Wetterdiagramm
Tabellarische Darstellung
Datum Temperatur Windchill Feuchte Luftdruck Windrichtung Windstärke Niederschlag
23.08.2014 03:25 12,6 °C 12,6 °C 97 % 1012,5 hPa 270 0.7 0,00 mm
23.08.2014 03:15 12,6 °C 12,6 °C 97 % 1012,5 hPa 0 1.4 0,00 mm
23.08.2014 03:05 12,6 °C 12,6 °C 97 % 1012,6 hPa 225 1.0 0,00 mm
23.08.2014 02:55 12,6 °C 12,6 °C 97 % 1012,5 hPa 225 1.4 0,00 mm
23.08.2014 02:45 12,5 °C 12,5 °C 96 % 1012,6 hPa 225 1.7 0,00 mm
23.08.2014 02:35 12,4 °C 12,4 °C 95 % 1012,6 hPa 293 1.4 0,00 mm
23.08.2014 02:25 12,5 °C 12,5 °C 95 % 1012,7 hPa 180 0.7 0,00 mm
23.08.2014 02:15 12,7 °C 12,7 °C 95 % 1012,7 hPa 225 0.3 0,00 mm
23.08.2014 02:05 12,6 °C 12,6 °C 95 % 1012,6 hPa 270 0.7 0,00 mm
23.08.2014 01:55 12,7 °C 12,7 °C 95 % 1012,4 hPa 315 1.7 0,00 mm
23.08.2014 01:45 12,7 °C 12,7 °C 95 % 1012,5 hPa 203 1.0 0,00 mm
23.08.2014 01:35 12,4 °C 12,4 °C 94 % 1012,5 hPa 225 0.7 0,00 mm
23.08.2014 01:25 12,6 °C 12,6 °C 94 % 1012,6 hPa 315 0.3 0,00 mm
23.08.2014 01:15 12,6 °C 12,6 °C 94 % 1012,7 hPa 270 0.0 0,00 mm
23.08.2014 01:05 12,5 °C 12,5 °C 94 % 1012,8 hPa 225 1.0 0,00 mm
23.08.2014 00:55 12,6 °C 12,6 °C 94 % 1012,7 hPa 270 1.0 0,00 mm
23.08.2014 00:45 12,7 °C 12,7 °C 94 % 1012,9 hPa 225 0.7 0,00 mm
23.08.2014 00:35 12,7 °C 12,7 °C 94 % 1012,7 hPa 135 0.3 0,00 mm
23.08.2014 00:25 12,9 °C 12,9 °C 94 % 1012,9 hPa 293 1.4 0,00 mm
23.08.2014 00:15 13,0 °C 13,0 °C 94 % 1012,8 hPa 180 1.4 0,00 mm
23.08.2014 00:05 13,2 °C 11,3 °C 95 % 1012,8 hPa 225 2.7 0,10 mm
Empfehlen Sie wetter.com
| Mehr
Neue Wetterwarnung

Neue Niederschlagsmeldung
Neue Meldung
Regen Liveticker
    sehr starker Regen/Gewitter
    starker Regen/Gewitter
    mäßiger bis starker Regen
    mäßiger Regen
    leichter bis mäßiger Regen
    kein Regen